Time;durP1;ratioP1;P1;durP2;ratioP2;P2;SDS_P1;SDS_P2;PMS_P1;PMS_P2;Temp;Humidity;BMP_temperature;BMP_pressure;BME280_temperature;BME280_humidity;BME280_pressure;Samples;Min_cycle;Max_cycle;Signal;HPM_P1;HPM_P2
2021/07/13 00:00:43;;;;;;;;;3.75;3.00;;;;;23.44;52.70;100745.34;5057211;28;51020;-50
2021/07/13 00:03:09;;;;;;;;;5.50;5.50;;;;;23.42;53.27;100740.06;5062003;28;51072;-52
2021/07/13 00:05:36;;;;;;;;;6.75;5.00;;;;;23.39;52.84;100739.72;5076738;28;50987;-50
2021/07/13 00:08:02;;;;;;;;;5.50;4.00;;;;;23.38;53.26;100736.13;5077164;28;51187;-51
2021/07/13 00:10:30;;;;;;;;;3.75;3.75;;;;;23.37;53.18;100733.59;5076849;28;51104;-50
2021/07/13 00:12:57;;;;;;;;;4.00;4.00;;;;;23.36;52.80;100731.94;5077696;28;51254;-50
2021/07/13 00:15:30;;;;;;;;;5.00;5.00;;;;;23.33;52.97;100728.53;5076868;28;50940;-52
2021/07/13 00:17:58;;;;;;;;;5.00;5.00;;;;;23.34;53.25;100726.63;5076927;28;51301;-51
2021/07/13 00:20:24;;;;;;;;;4.00;4.00;;;;;23.32;52.91;100714.97;5068594;28;50984;-50
2021/07/13 00:22:50;;;;;;;;;4.25;3.75;;;;;23.31;53.00;100707.78;5056721;28;51068;-49
2021/07/13 00:25:16;;;;;;;;;5.00;5.00;;;;;23.29;53.20;100713.53;5056237;28;51975;-52
2021/07/13 00:27:42;;;;;;;;;5.00;5.00;;;;;23.28;53.18;100722.09;5056476;28;51309;-51
2021/07/13 00:30:11;;;;;;;;;8.00;6.00;;;;;23.27;52.87;100717.66;5056426;28;51265;-53
2021/07/13 00:32:37;;;;;;;;;5.75;5.75;;;;;23.26;53.48;100724.25;5056906;28;51067;-52
2021/07/13 00:35:04;;;;;;;;;4.75;4.75;;;;;23.24;53.22;100724.50;5056176;28;50995;-52
2021/07/13 00:37:30;;;;;;;;;8.25;5.25;;;;;23.23;52.99;100711.75;5056350;28;51074;-52
2021/07/13 00:39:55;;;;;;;;;6.00;6.00;;;;;23.22;53.36;100710.06;5038075;28;51173;-52
2021/07/13 00:42:20;;;;;;;;;5.75;5.75;;;;;23.20;53.48;100714.16;5056513;28;51145;-51
2021/07/13 00:44:47;;;;;;;;;6.75;6.00;;;;;23.20;53.58;100708.63;5037902;28;51862;-52
2021/07/13 00:47:17;;;;;;;;;10.50;7.25;;;;;23.18;53.84;100692.31;5056347;28;51309;-50
2021/07/13 00:49:45;;;;;;;;;9.00;5.50;;;;;23.18;53.56;100685.94;5055951;28;51184;-48
2021/07/13 00:52:10;;;;;;;;;6.25;6.25;;;;;23.17;53.78;100678.75;5056548;28;51638;-52
2021/07/13 00:54:36;;;;;;;;;8.00;7.25;;;;;23.16;53.48;100680.66;5055704;28;51986;-50
2021/07/13 00:57:07;;;;;;;;;6.50;6.50;;;;;23.15;53.81;100686.44;5055108;28;51193;-51
2021/07/13 00:59:32;;;;;;;;;8.25;6.50;;;;;23.14;54.01;100685.59;5056180;28;51065;-51
2021/07/13 01:01:58;;;;;;;;;5.25;5.25;;;;;23.14;53.69;100693.06;5056160;28;51368;-51
2021/07/13 01:04:23;;;;;;;;;8.50;7.50;;;;;23.13;53.53;100683.06;5070388;28;51058;-52
2021/07/13 01:06:51;;;;;;;;;8.75;7.00;;;;;23.12;53.82;100686.91;5076240;28;51040;-50
2021/07/13 01:09:46;;;;;;;;;7.75;7.75;;;;;23.11;53.66;100679.72;5076335;28;50984;-51
2021/07/13 01:12:47;;;;;;;;;11.00;9.00;;;;;23.10;53.40;100672.50;5062856;28;51232;-53
2021/07/13 01:15:17;;;;;;;;;9.50;9.50;;;;;23.08;53.58;100653.41;5070959;28;51032;-53
2021/07/13 01:17:53;;;;;;;;;14.50;10.50;;;;;23.08;53.80;100655.34;5076052;28;51119;-51
2021/07/13 01:20:52;;;;;;;;;12.25;9.00;;;;;23.06;53.58;100669.41;5076158;28;51068;-53
2021/07/13 01:23:42;;;;;;;;;11.75;10.00;;;;;23.07;53.78;100673.00;5076282;28;51108;-53
2021/07/13 01:26:34;;;;;;;;;9.00;8.50;;;;;23.04;53.58;100669.66;5033963;28;54158;-51
2021/07/13 01:29:04;;;;;;;;;9.25;6.75;;;;;23.04;53.36;100663.28;5075077;28;51146;-48
2021/07/13 01:31:30;;;;;;;;;6.75;6.75;;;;;23.02;53.68;100657.97;5075975;28;51156;-52
2021/07/13 01:34:02;;;;;;;;;11.00;9.25;;;;;23.02;54.02;100655.22;5075764;28;51314;-52
2021/07/13 01:36:30;;;;;;;;;8.00;7.75;;;;;23.02;53.38;100662.66;5075643;28;51053;-54
2021/07/13 01:39:00;;;;;;;;;11.25;8.00;;;;;23.01;53.77;100670.09;5075728;28;51357;-48
2021/07/13 01:41:29;;;;;;;;;12.75;7.00;;;;;23.00;53.62;100673.97;5074194;28;51083;-50
2021/07/13 01:43:57;;;;;;;;;10.25;9.25;;;;;23.00;53.94;100686.94;5075860;28;51004;-50
2021/07/13 01:46:23;;;;;;;;;10.50;9.00;;;;;22.99;53.70;100694.38;5075222;28;51977;-53
2021/07/13 01:48:53;;;;;;;;;11.00;7.50;;;;;22.98;53.93;100694.63;5057264;28;51582;-53
2021/07/13 01:51:20;;;;;;;;;7.25;7.25;;;;;22.97;53.52;100702.06;5075340;28;51059;-52
2021/07/13 01:53:48;;;;;;;;;9.50;9.50;;;;;22.97;53.67;100693.78;5075699;28;51226;-53
2021/07/13 01:56:13;;;;;;;;;8.00;7.00;;;;;22.96;54.03;100685.75;5075031;28;51038;-51
2021/07/13 01:58:40;;;;;;;;;7.25;7.25;;;;;22.97;53.72;100684.66;5075584;28;51040;-50
2021/07/13 02:01:20;;;;;;;;;9.50;8.00;;;;;22.96;53.40;100683.81;5075683;28;50949;-47
2021/07/13 02:03:49;;;;;;;;;9.25;7.00;;;;;22.95;54.05;100684.06;5075501;28;51336;-52
2021/07/13 02:06:17;;;;;;;;;8.75;8.75;;;;;22.96;53.51;100694.88;5075224;28;51063;-51
2021/07/13 02:08:43;;;;;;;;;9.25;8.25;;;;;22.94;53.85;100688.75;5075455;28;51203;-53
2021/07/13 02:11:10;;;;;;;;;8.75;8.25;;;;;22.94;54.17;100694.28;5078757;28;51140;-52
2021/07/13 02:13:36;;;;;;;;;7.00;7.00;;;;;22.94;53.63;100688.75;5079452;28;51102;-50
2021/07/13 02:16:05;;;;;;;;;7.75;6.25;;;;;22.94;53.39;100690.69;5078604;28;51934;-53
2021/07/13 02:18:30;;;;;;;;;7.25;6.75;;;;;22.93;53.76;100694.53;5078343;28;51055;-53
2021/07/13 02:20:56;;;;;;;;;7.75;7.75;;;;;22.92;53.93;100690.06;5077293;28;51045;-50
2021/07/13 02:23:21;;;;;;;;;8.00;6.50;;;;;22.91;53.47;100683.69;5079029;28;50912;-50
2021/07/13 02:25:51;;;;;;;;;10.00;7.75;;;;;22.91;53.52;100678.16;5078279;28;51031;-50
2021/07/13 02:28:31;;;;;;;;;5.50;5.50;;;;;22.91;53.61;100663.53;5078760;28;51157;-52
2021/07/13 02:31:03;;;;;;;;;5.25;5.25;;;;;22.91;53.69;100667.13;5078791;28;51144;-53
2021/07/13 02:33:46;;;;;;;;;7.50;7.00;;;;;22.90;53.58;100676.50;5078616;28;50996;-51
2021/07/13 02:36:17;;;;;;;;;6.75;4.75;;;;;22.89;53.61;100683.09;5078484;28;51884;-52
2021/07/13 02:38:46;;;;;;;;;6.25;6.25;;;;;22.89;53.63;100691.41;5078755;28;51061;-52
2021/07/13 02:41:15;;;;;;;;;5.50;4.50;;;;;22.90;53.68;100686.72;5078738;28;50996;-49
2021/07/13 02:43:41;;;;;;;;;7.00;7.00;;;;;22.89;53.58;100688.63;5078842;28;51388;-51
2021/07/13 02:46:07;;;;;;;;;8.00;8.00;;;;;22.90;53.94;100686.72;5078565;28;51209;-47
2021/07/13 02:48:37;;;;;;;;;7.75;5.75;;;;;22.89;53.88;100682.28;5078511;28;51031;-52
2021/07/13 02:51:03;;;;;;;;;9.50;8.25;;;;;22.89;53.69;100676.75;5078632;28;51127;-51
2021/07/13 02:53:29;;;;;;;;;7.50;6.50;;;;;22.88;53.69;100681.44;5078594;28;51459;-53
2021/07/13 02:55:57;;;;;;;;;6.00;5.25;;;;;22.88;53.90;100681.44;5078157;28;51861;-51
2021/07/13 02:58:23;;;;;;;;;6.25;4.50;;;;;22.87;53.42;100681.69;5078480;28;51095;-52
2021/07/13 03:00:50;;;;;;;;;6.50;6.50;;;;;22.87;53.35;100690.81;5078736;28;50996;-53
2021/07/13 03:03:16;;;;;;;;;8.00;7.00;;;;;22.86;53.95;100683.59;5072902;28;51557;-52
2021/07/13 03:05:42;;;;;;;;;6.00;6.00;;;;;22.85;53.81;100681.91;5057518;28;51135;-52
2021/07/13 03:08:09;;;;;;;;;4.50;4.50;;;;;22.86;53.63;100686.38;5058151;28;51589;-51
2021/07/13 03:10:34;;;;;;;;;8.50;6.25;;;;;22.86;53.73;100685.53;5057477;28;51027;-52
2021/07/13 03:13:00;;;;;;;;;7.00;7.00;;;;;22.85;53.72;100698.50;5058149;28;51267;-49
2021/07/13 03:15:29;;;;;;;;;9.25;8.00;;;;;22.85;53.39;100703.19;5057588;28;51805;-51
2021/07/13 03:17:56;;;;;;;;;6.00;4.00;;;;;22.83;53.75;100708.06;5057713;28;51167;-53
2021/07/13 03:20:22;;;;;;;;;7.75;7.50;;;;;22.81;53.45;100697.25;5057108;28;51216;-50
2021/07/13 03:22:49;;;;;;;;;8.00;6.00;;;;;22.81;53.37;100696.41;5058231;28;51318;-52
2021/07/13 03:25:26;;;;;;;;;9.50;7.00;;;;;22.79;53.94;100682.84;5057455;28;51042;-51
2021/07/13 03:27:52;;;;;;;;;6.75;6.75;;;;;22.78;54.09;100686.69;5057480;28;51191;-52
2021/07/13 03:30:19;;;;;;;;;9.75;6.50;;;;;22.78;53.57;100678.41;5057525;28;51101;-51
2021/07/13 03:32:45;;;;;;;;;8.75;6.25;;;;;22.77;53.88;100674.81;5057959;28;51206;-51
2021/07/13 03:35:11;;;;;;;;;9.25;6.75;;;;;22.75;54.15;100660.41;5057249;28;51873;-51
2021/07/13 03:37:38;;;;;;;;;7.25;6.25;;;;;22.76;53.72;100656.56;5057711;28;51205;-49
2021/07/13 03:40:05;;;;;;;;;7.50;6.50;;;;;22.75;53.70;100665.09;5057384;28;51161;-52
2021/07/13 03:42:31;;;;;;;;;9.50;7.75;;;;;22.75;53.99;100659.56;5057473;28;51289;-53
2021/07/13 03:44:56;;;;;;;;;6.50;5.75;;;;;22.75;54.16;100665.09;5057074;28;51670;-52
2021/07/13 03:47:22;;;;;;;;;6.50;5.75;;;;;22.74;53.57;100660.66;5057442;28;51061;-51
2021/07/13 03:49:49;;;;;;;;;6.50;6.50;;;;;22.73;53.51;100662.56;5057371;28;51241;-53
2021/07/13 03:52:14;;;;;;;;;5.50;5.50;;;;;22.74;54.01;100666.19;5057482;28;51091;-49
2021/07/13 03:54:40;;;;;;;;;10.00;5.50;;;;;22.72;54.10;100671.94;5056671;28;51631;-53
2021/07/13 03:57:06;;;;;;;;;7.00;7.00;;;;;22.73;54.07;100675.53;5056741;28;51257;-52
2021/07/13 03:59:32;;;;;;;;;7.25;7.25;;;;;22.73;53.62;100681.06;5057226;28;51030;-48
2021/07/13 04:01:57;;;;;;;;;7.00;7.00;;;;;22.72;53.67;100668.34;5057352;28;51350;-51
2021/07/13 04:04:23;;;;;;;;;11.25;7.00;;;;;22.72;53.55;100665.59;5071749;28;51032;-51
2021/07/13 04:06:48;;;;;;;;;8.75;8.50;;;;;22.71;53.83;100670.25;5077234;28;51035;-50
2021/07/13 04:09:14;;;;;;;;;8.00;7.25;;;;;22.72;53.67;100673.88;5077398;28;51156;-51
2021/07/13 04:11:39;;;;;;;;;10.00;8.00;;;;;22.71;53.88;100680.44;5077213;28;51083;-53
2021/07/13 04:14:05;;;;;;;;;8.25;7.00;;;;;22.70;53.92;100678.75;5077093;28;51702;-50
2021/07/13 04:16:31;;;;;;;;;8.00;8.00;;;;;22.68;53.81;100681.78;5077256;28;50988;-51
2021/07/13 04:18:56;;;;;;;;;6.75;6.50;;;;;22.67;53.72;100674.56;5077173;28;51147;-52
2021/07/13 04:21:22;;;;;;;;;8.50;8.50;;;;;22.67;54.16;100669.06;5075126;27;51283;-51
2021/07/13 04:23:47;;;;;;;;;8.00;8.00;;;;;22.67;54.08;100676.50;5058842;28;52797;-54
2021/07/13 04:26:12;;;;;;;;;8.00;6.00;;;;;22.67;54.22;100668.22;5056567;28;50872;-53
2021/07/13 04:28:38;;;;;;;;;9.75;8.00;;;;;22.67;53.98;100671.81;5076828;28;50989;-50
2021/07/13 04:31:03;;;;;;;;;9.00;9.00;;;;;22.66;54.27;100672.06;5076851;28;51286;-51
2021/07/13 04:33:29;;;;;;;;;9.75;9.75;;;;;22.66;53.93;100675.66;5075713;28;51809;-49
2021/07/13 04:35:57;;;;;;;;;9.25;8.50;;;;;22.66;54.19;100674.81;5076907;28;51361;-48
2021/07/13 04:38:23;;;;;;;;;9.75;8.50;;;;;22.66;53.97;100683.94;5077057;28;51114;-51
2021/07/13 04:40:48;;;;;;;;;11.00;10.00;;;;;22.65;54.28;100684.19;5076874;28;51079;-49
2021/07/13 04:43:13;;;;;;;;;12.00;9.75;;;;;22.65;54.25;100687.78;5076719;28;51863;-52
2021/07/13 04:45:40;;;;;;;;;11.25;10.25;;;;;22.64;53.98;100680.59;5076427;28;51096;-53
2021/07/13 04:48:06;;;;;;;;;10.75;9.75;;;;;22.65;54.05;100682.25;5076628;28;51275;-52
2021/07/13 04:50:31;;;;;;;;;12.00;11.25;;;;;22.65;54.07;100682.25;5076737;28;50990;-52
2021/07/13 04:52:56;;;;;;;;;11.00;10.25;;;;;22.64;54.28;100665.94;5076423;28;51071;-51
2021/07/13 04:55:22;;;;;;;;;14.75;12.50;;;;;22.64;54.33;100668.72;5076154;28;50967;-50
2021/07/13 04:57:47;;;;;;;;;14.25;9.25;;;;;22.65;54.14;100670.38;5076634;28;51429;-49
2021/07/13 05:00:15;;;;;;;;;10.00;10.00;;;;;22.64;54.45;100669.53;5076625;28;50923;-52
2021/07/13 05:02:41;;;;;;;;;12.25;10.00;;;;;22.63;54.26;100672.56;5073778;28;53654;-51
2021/07/13 05:05:08;;;;;;;;;12.75;9.00;;;;;22.63;53.86;100669.78;5055983;28;51077;-49
2021/07/13 05:07:38;;;;;;;;;8.00;7.75;;;;;22.62;53.84;100671.72;5056013;28;50999;-47
2021/07/13 05:10:04;;;;;;;;;12.25;10.25;;;;;22.63;54.04;100678.91;5056069;28;51218;-53
2021/07/13 05:12:29;;;;;;;;;13.75;9.00;;;;;22.63;53.85;100686.34;5055768;28;51275;-51
2021/07/13 05:14:54;;;;;;;;;11.50;10.50;;;;;22.62;54.42;100676.41;5056085;28;51025;-51
2021/07/13 05:17:20;;;;;;;;;11.75;10.50;;;;;22.61;54.25;100682.97;5055915;28;51085;-50
2021/07/13 05:19:48;;;;;;;;;9.00;9.00;;;;;22.61;54.52;100686.56;5056146;28;51018;-53
2021/07/13 05:22:13;;;;;;;;;10.00;8.25;;;;;22.61;54.18;100686.56;5055689;28;52732;-53
2021/07/13 05:24:39;;;;;;;;;12.00;12.00;;;;;22.60;54.10;100690.41;5055618;28;51116;-51
2021/07/13 05:27:04;;;;;;;;;13.25;10.75;;;;;22.60;53.96;100692.34;5055872;28;50963;-50
2021/07/13 05:29:32;;;;;;;;;10.25;10.25;;;;;22.59;54.33;100696.19;5055955;28;50975;-50
2021/07/13 05:31:57;;;;;;;;;12.25;12.25;;;;;22.59;54.02;100705.28;5055371;28;51847;-50
2021/07/13 05:34:23;;;;;;;;;11.25;9.50;;;;;22.61;54.54;100707.81;5055693;28;51044;-51
2021/07/13 05:36:48;;;;;;;;;10.00;9.25;;;;;22.59;53.99;100705.28;5055620;28;51274;-50
2021/07/13 05:39:13;;;;;;;;;13.75;11.00;;;;;22.59;54.02;100707.22;5056058;28;51467;-50
2021/07/13 05:41:39;;;;;;;;;12.25;9.00;;;;;22.60;54.57;100714.41;5055149;28;51114;-51
2021/07/13 05:44:06;;;;;;;;;9.50;9.50;;;;;22.58;54.59;100717.44;5055302;28;51072;-51
2021/07/13 05:46:32;;;;;;;;;10.25;10.25;;;;;22.58;54.06;100711.06;5055598;28;51495;-53
2021/07/13 05:48:57;;;;;;;;;17.00;11.00;;;;;22.58;54.28;100711.91;5055555;28;51061;-52
2021/07/13 05:51:22;;;;;;;;;11.00;10.50;;;;;22.58;54.58;100714.66;5055279;28;51944;-49
2021/07/13 05:53:48;;;;;;;;;9.25;9.00;;;;;22.59;54.23;100709.97;5055283;28;51047;-52
2021/07/13 05:56:13;;;;;;;;;9.25;9.25;;;;;22.59;54.64;100715.50;5055070;28;51049;-53
2021/07/13 05:58:38;;;;;;;;;14.75;12.00;;;;;22.59;54.22;100709.97;5055495;28;51157;-48
2021/07/13 06:01:05;;;;;;;;;9.75;9.00;;;;;22.60;54.60;100711.66;5037099;28;51240;-52
2021/07/13 06:03:30;;;;;;;;;11.00;9.25;;;;;22.60;54.58;100714.41;5062814;28;51065;-51
2021/07/13 06:05:56;;;;;;;;;10.75;10.00;;;;;22.59;54.13;100713.59;5075563;28;51031;-53
2021/07/13 06:08:21;;;;;;;;;11.75;10.25;;;;;22.60;54.28;100711.66;5075704;28;50933;-50
2021/07/13 06:10:47;;;;;;;;;11.00;11.00;;;;;22.58;54.61;100711.91;5074690;28;51813;-51
2021/07/13 06:13:12;;;;;;;;;12.25;10.25;;;;;22.59;54.49;100701.69;5075567;28;50965;-53
2021/07/13 06:15:37;;;;;;;;;11.00;11.00;;;;;22.58;54.38;100708.31;5075286;28;51252;-53
2021/07/13 06:18:03;;;;;;;;;10.25;10.25;;;;;22.59;54.74;100698.94;5075234;28;51043;-52
2021/07/13 06:20:29;;;;;;;;;10.50;9.75;;;;;22.58;54.46;100697.25;5075004;28;50874;-51
2021/07/13 06:22:54;;;;;;;;;16.75;13.00;;;;;22.59;54.58;100707.22;5061955;28;51293;-47
2021/07/13 06:25:20;;;;;;;;;13.75;11.00;;;;;22.59;54.58;100704.47;5059975;28;51042;-53
2021/07/13 06:27:45;;;;;;;;;12.50;12.00;;;;;22.59;54.87;100707.22;5054990;28;51250;-52
2021/07/13 06:30:13;;;;;;;;;14.75;14.25;;;;;22.58;54.61;100709.16;5054698;28;51409;-51
2021/07/13 06:32:38;;;;;;;;;16.50;15.00;;;;;22.59;54.45;100707.22;5054682;28;51075;-53
2021/07/13 06:35:04;;;;;;;;;10.50;9.50;;;;;22.60;54.72;100708.91;5054439;28;50965;-51
2021/07/13 06:37:29;;;;;;;;;12.25;12.25;;;;;22.59;54.93;100708.06;5054716;28;51358;-48
2021/07/13 06:39:54;;;;;;;;;14.25;13.75;;;;;22.60;55.00;100700.63;5054356;28;51089;-48
2021/07/13 06:42:20;;;;;;;;;10.75;10.75;;;;;22.60;54.92;100695.94;5054572;28;51379;-51
2021/07/13 06:44:45;;;;;;;;;13.00;11.00;;;;;22.60;54.42;100693.16;5054624;28;50973;-52
2021/07/13 06:47:10;;;;;;;;;14.50;11.50;;;;;22.60;54.58;100695.94;5054867;28;50919;-53
2021/07/13 06:49:36;;;;;;;;;14.00;14.00;;;;;22.61;54.71;100696.78;5054277;28;54882;-50
2021/07/13 06:52:02;;;;;;;;;16.00;13.25;;;;;22.60;54.87;100684.88;5054550;28;51028;-51
2021/07/13 06:54:27;;;;;;;;;11.25;10.50;;;;;22.60;54.70;100682.13;5054439;28;51214;-51
2021/07/13 06:56:53;;;;;;;;;14.00;12.50;;;;;22.60;55.17;100679.38;5058843;28;50933;-50
2021/07/13 06:59:18;;;;;;;;;13.75;11.00;;;;;22.61;54.99;100680.22;5066068;28;51044;-51
2021/07/13 07:01:43;;;;;;;;;11.75;11.75;;;;;22.61;54.73;100683.81;5074848;28;51129;-51
2021/07/13 07:04:09;;;;;;;;;16.50;13.75;;;;;22.60;55.11;100684.06;5066881;28;51221;-50
2021/07/13 07:06:34;;;;;;;;;13.50;13.50;;;;;22.60;55.28;100679.38;5077197;28;51002;-50
2021/07/13 07:08:59;;;;;;;;;13.75;13.75;;;;;22.60;55.12;100684.06;5073564;28;52916;-52
2021/07/13 07:11:24;;;;;;;;;15.00;11.00;;;;;22.60;54.99;100686.81;5073067;28;50977;-52
2021/07/13 07:13:50;;;;;;;;;19.25;13.25;;;;;22.59;54.89;100683.22;5070569;28;51235;-49
2021/07/13 07:16:15;;;;;;;;;17.25;14.75;;;;;22.59;55.39;100680.44;5069877;28;51242;-53
2021/07/13 07:18:41;;;;;;;;;17.50;15.75;;;;;22.56;55.77;100680.94;5054350;28;53618;-51
2021/07/13 07:21:06;;;;;;;;;24.50;21.00;;;;;22.55;55.86;100662.69;5057755;28;51138;-52
2021/07/13 07:23:31;;;;;;;;;21.50;19.75;;;;;22.54;55.64;100662.94;5063474;28;51109;-52
2021/07/13 07:25:57;;;;;;;;;18.75;16.50;;;;;22.51;55.43;100669.78;5070176;28;50942;-53
2021/07/13 07:28:23;;;;;;;;;20.50;17.00;;;;;22.51;55.57;100677.22;5077880;28;51040;-50
2021/07/13 07:30:48;;;;;;;;;19.25;17.25;;;;;22.46;55.64;100676.00;5057653;28;51165;-47
2021/07/13 07:33:14;;;;;;;;;21.50;18.75;;;;;22.40;56.24;100682.47;5071741;28;51510;-50
2021/07/13 07:35:39;;;;;;;;;21.50;18.50;;;;;22.36;56.04;100683.22;5074924;28;51180;-53
2021/07/13 07:38:05;;;;;;;;;23.00;19.25;;;;;22.30;56.19;100686.91;5071490;28;52075;-51
2021/07/13 07:40:31;;;;;;;;;24.75;17.75;;;;;22.28;56.48;100698.19;5075744;27;51010;-52
2021/07/13 07:42:58;;;;;;;;;23.00;20.75;;;;;22.21;56.80;100704.91;5074034;28;51090;-51
2021/07/13 07:45:25;;;;;;;;;23.25;21.75;;;;;22.17;56.94;100719.16;5072615;27;51378;-52
2021/07/13 07:47:51;;;;;;;;;21.00;17.50;;;;;22.14;56.88;100705.00;5064453;27;52466;-52
2021/07/13 07:50:18;;;;;;;;;20.75;20.50;;;;;22.12;56.68;100704.41;5074973;28;51253;-53
2021/07/13 07:52:43;;;;;;;;;17.50;16.75;;;;;22.11;56.88;100702.75;5073975;28;51255;-51
2021/07/13 07:55:10;;;;;;;;;26.50;23.50;;;;;22.13;56.75;100700.59;5074839;28;51568;-51
2021/07/13 07:57:36;;;;;;;;;25.00;20.00;;;;;22.14;56.97;100708.63;5074011;28;52234;-52
2021/07/13 08:00:05;;;;;;;;;24.50;19.25;;;;;22.15;56.84;100707.53;5051172;28;51059;-53
2021/07/13 08:02:31;;;;;;;;;18.75;18.00;;;;;22.11;56.83;100714.63;5073549;28;51007;-51
2021/07/13 08:04:56;;;;;;;;;19.50;18.00;;;;;22.12;56.90;100720.97;5073628;27;51111;-48
2021/07/13 08:07:21;;;;;;;;;19.50;17.75;;;;;22.08;56.90;100715.06;5072195;28;50980;-51
2021/07/13 08:09:47;;;;;;;;;15.75;14.25;;;;;22.05;57.30;100711.91;5067855;28;51033;-54
2021/07/13 08:12:12;;;;;;;;;18.00;15.25;;;;;22.08;57.01;100716.97;5073522;28;51235;-51
2021/07/13 08:14:37;;;;;;;;;17.25;14.50;;;;;22.08;57.26;100714.22;5074688;28;51117;-52
2021/07/13 08:17:03;;;;;;;;;18.00;15.00;;;;;22.07;57.16;100707.88;5071922;28;51092;-51
2021/07/13 08:19:28;;;;;;;;;14.75;10.75;;;;;22.07;57.10;100716.13;5076081;28;51178;-53
2021/07/13 08:21:54;;;;;;;;;17.25;15.25;;;;;22.08;57.65;100722.50;5073436;28;51061;-52
2021/07/13 08:24:20;;;;;;;;;15.50;13.25;;;;;22.07;57.88;100727.19;5070357;28;51129;-53
2021/07/13 08:26:46;;;;;;;;;20.25;15.50;;;;;22.08;57.92;100726.09;5074440;28;51670;-50
2021/07/13 08:29:12;;;;;;;;;13.50;12.00;;;;;22.07;57.90;100721.66;5073279;28;51223;-53
2021/07/13 08:31:38;;;;;;;;;12.75;12.75;;;;;22.08;57.77;100726.09;5072145;27;51260;-53
2021/07/13 08:34:03;;;;;;;;;14.25;13.75;;;;;22.09;57.29;100726.94;5075755;28;51079;-52
2021/07/13 08:36:28;;;;;;;;;13.00;12.75;;;;;22.07;57.75;100718.06;5074743;28;51027;-53
2021/07/13 08:38:54;;;;;;;;;19.50;17.50;;;;;22.07;57.80;100716.13;5074518;27;51168;-53
2021/07/13 08:41:20;;;;;;;;;13.00;11.25;;;;;22.05;57.51;100715.50;5072783;28;51831;-50
2021/07/13 08:43:46;;;;;;;;;16.00;14.50;;;;;22.05;57.61;100720.19;5073762;28;51370;-52
2021/07/13 08:46:12;;;;;;;;;17.50;13.75;;;;;22.05;57.61;100726.53;5071948;28;51761;-52
2021/07/13 08:48:39;;;;;;;;;16.25;13.25;;;;;22.06;58.12;100728.25;5072282;28;51085;-54
2021/07/13 08:51:06;;;;;;;;;16.50;14.75;;;;;22.06;58.56;100721.88;5067576;28;51109;-52
2021/07/13 08:53:32;;;;;;;;;13.00;13.00;;;;;22.07;58.29;100718.91;5068543;28;51096;-53
2021/07/13 08:55:57;;;;;;;;;17.00;12.50;;;;;22.12;57.83;100718.22;5068800;28;51082;-49
2021/07/13 08:58:24;;;;;;;;;18.25;13.75;;;;;22.15;57.56;100713.06;5067174;28;51141;-54
2021/07/13 09:00:50;;;;;;;;;14.50;13.00;;;;;22.18;57.75;100709.81;5055653;28;51101;-54
2021/07/13 09:03:21;;;;;;;;;14.50;13.50;;;;;22.24;57.63;100715.47;5061314;28;51135;-54
2021/07/13 09:05:50;;;;;;;;;14.50;14.00;;;;;22.27;57.38;100718.59;5075366;28;51020;-53
2021/07/13 09:08:28;;;;;;;;;15.25;11.50;;;;;22.31;57.44;100721.72;5075704;28;51114;-53
2021/07/13 09:11:13;;;;;;;;;12.75;10.50;;;;;22.34;57.38;100729.53;5075650;28;51132;-54
2021/07/13 09:13:48;;;;;;;;;17.25;13.75;;;;;22.36;56.89;100736.47;5075898;28;50968;-54
2021/07/13 09:16:21;;;;;;;;;13.75;12.25;;;;;22.39;57.41;100737.91;5075281;28;51998;-54
2021/07/13 09:18:52;;;;;;;;;17.75;11.50;;;;;22.40;56.90;100737.69;5074898;28;51180;-54
2021/07/13 09:21:22;;;;;;;;;10.75;9.00;;;;;22.41;57.35;100736.63;5075728;28;51157;-54
2021/07/13 09:24:02;;;;;;;;;13.50;12.00;;;;;22.43;56.69;100737.22;5075840;28;51125;-54
2021/07/13 09:26:45;;;;;;;;;13.00;9.75;;;;;22.44;56.69;100741.66;5075136;28;52685;-58
2021/07/13 09:29:34;;;;;;;;;13.25;12.50;;;;;22.46;56.80;100750.53;5075298;28;51284;-51
2021/07/13 09:32:25;;;;;;;;;10.00;9.50;;;;;22.48;57.19;100745.63;5075463;28;51191;-52
2021/07/13 09:34:56;;;;;;;;;10.75;10.75;;;;;22.51;57.16;100746.22;5075764;28;51389;-54
2021/07/13 09:37:28;;;;;;;;;11.00;11.00;;;;;22.51;56.73;100737.94;5074977;28;51093;-54
2021/07/13 09:40:02;;;;;;;;;10.50;10.00;;;;;22.54;56.94;100745.75;5075338;28;51243;-51
2021/07/13 09:42:29;;;;;;;;;15.25;11.00;;;;;22.54;57.15;100745.75;5075340;28;51082;-50
2021/07/13 09:45:18;;;;;;;;;12.50;11.75;;;;;22.55;56.71;100744.69;5075342;28;51142;-54
2021/07/13 09:47:44;;;;;;;;;12.75;12.25;;;;;22.55;56.70;100750.19;5056971;28;51279;-55
2021/07/13 09:50:12;;;;;;;;;8.25;8.25;;;;;22.57;57.19;100748.88;5075000;28;51007;-53
2021/07/13 09:52:37;;;;;;;;;11.25;10.75;;;;;22.56;56.58;100747.19;5075346;28;51035;-50
2021/07/13 09:55:17;;;;;;;;;13.75;11.00;;;;;22.58;57.06;100760.75;5074966;28;50984;-55
2021/07/13 09:57:43;;;;;;;;;10.00;9.50;;;;;22.59;56.72;100755.00;5075102;28;51080;-54
2021/07/13 10:00:09;;;;;;;;;10.25;9.50;;;;;22.60;57.16;100764.13;5075412;28;51087;-53
2021/07/13 10:02:35;;;;;;;;;8.50;7.50;;;;;22.61;56.62;100765.78;5074929;28;51147;-52
2021/07/13 10:05:04;;;;;;;;;8.50;8.50;;;;;22.61;57.04;100765.78;5075231;28;51241;-53
2021/07/13 10:07:30;;;;;;;;;11.25;10.25;;;;;22.61;56.80;100769.38;5074369;28;51092;-54
2021/07/13 10:10:03;;;;;;;;;10.00;8.50;;;;;22.63;56.69;100756.22;5074803;28;51158;-54
2021/07/13 10:12:28;;;;;;;;;14.25;10.25;;;;;22.63;56.74;100767.25;5074945;28;51351;-52
2021/07/13 10:14:58;;;;;;;;;12.75;9.75;;;;;22.64;56.99;100757.91;5075142;28;51363;-54
2021/07/13 10:17:25;;;;;;;;;11.25;9.00;;;;;22.65;56.71;100759.56;5075085;28;52006;-54
2021/07/13 10:19:55;;;;;;;;;10.00;9.00;;;;;22.65;57.40;100754.06;5074269;28;50985;-53
2021/07/13 10:22:23;;;;;;;;;12.75;11.25;;;;;22.66;56.81;100766.78;5075138;28;51062;-54
2021/07/13 10:24:51;;;;;;;;;12.00;10.00;;;;;22.67;57.35;100773.97;5074644;28;51265;-53
2021/07/13 10:27:28;;;;;;;;;9.50;9.00;;;;;22.67;57.49;100767.63;5074343;28;51018;-53
2021/07/13 10:29:57;;;;;;;;;10.00;7.50;;;;;22.67;57.48;100773.13;5074132;28;51193;-54
2021/07/13 10:32:25;;;;;;;;;9.50;9.25;;;;;22.68;57.40;100770.13;5072697;28;51240;-53
2021/07/13 10:34:56;;;;;;;;;14.00;10.00;;;;;22.69;57.27;100765.44;5069322;28;51174;-55
2021/07/13 10:37:41;;;;;;;;;12.50;9.00;;;;;22.69;57.59;100766.28;5075713;28;51731;-53
2021/07/13 10:40:08;;;;;;;;;12.00;10.75;;;;;22.71;57.32;100763.28;5071030;28;51652;-54
2021/07/13 10:42:42;;;;;;;;;10.75;9.25;;;;;22.71;57.07;100769.66;5069500;28;51159;-53
2021/07/13 10:45:42;;;;;;;;;10.25;10.25;;;;;22.72;57.44;100768.59;5068845;28;51463;-54
2021/07/13 10:48:12;;;;;;;;;11.00;8.75;;;;;22.74;56.95;100773.88;5027174;28;51051;-55
2021/07/13 10:50:46;;;;;;;;;14.25;11.00;;;;;22.74;57.63;100768.34;5072913;28;51421;-53
2021/07/13 10:53:23;;;;;;;;;15.00;10.50;;;;;22.76;58.02;100761.50;5075615;28;51166;-53
2021/07/13 10:55:57;;;;;;;;;16.00;14.50;;;;;22.79;57.91;100759.34;5074162;28;51145;-53
2021/07/13 10:58:28;;;;;;;;;17.50;15.00;;;;;22.80;58.13;100759.09;5069050;27;52791;-53
2021/07/13 11:00:56;;;;;;;;;22.50;20.25;;;;;22.82;58.01;100759.69;5062146;27;51588;-53
2021/07/13 11:03:31;;;;;;;;;22.25;18.25;;;;;22.84;57.88;100759.50;5042802;28;51185;-53
2021/07/13 11:05:57;;;;;;;;;23.50;22.00;;;;;22.86;58.23;100760.09;5071948;28;51141;-53
2021/07/13 11:08:41;;;;;;;;;19.75;18.25;;;;;22.88;58.19;100761.53;5075389;27;51919;-50
2021/07/13 11:13:47;;;;;;;;;18.75;18.25;;;;;22.91;57.68;100755.50;5073447;28;51138;-50
2021/07/13 11:16:14;;;;;;;;;15.25;13.75;;;;;22.92;57.47;100770.16;5068732;28;51293;-52
2021/07/13 11:18:42;;;;;;;;;16.50;13.00;;;;;22.92;57.52;100765.47;5070370;27;51131;-52
2021/07/13 11:21:28;;;;;;;;;21.25;16.25;;;;;22.92;57.96;100779.28;5076376;27;51215;-54
2021/07/13 11:23:59;;;;;;;;;15.50;14.75;;;;;22.92;58.14;100778.44;5068459;28;51122;-54